Time;durP1;ratioP1;P1;durP2;ratioP2;P2;SDS_P1;SDS_P2;PMS_P1;PMS_P2;Temp;Humidity;BMP_temperature;BMP_pressure;BME280_temperature;BME280_humidity;BME280_pressure;Samples;Min_cycle;Max_cycle;Signal;HPM_P1;HPM_P2
2022/06/15 00:02:08;;;;;;;7.05;2.80;;;11.50;99.90;;;;;;5035045;28;20040;-66
2022/06/15 00:04:35;;;;;;;8.20;2.88;;;11.60;99.90;;;;;;5035391;28;20028;-67
2022/06/15 00:07:03;;;;;;;2.70;2.30;;;11.60;99.90;;;;;;5035330;28;20056;-67
2022/06/15 00:09:30;;;;;;;6.22;3.00;;;11.60;99.90;;;;;;5035269;28;20338;-69
2022/06/15 00:11:57;;;;;;;7.13;3.00;;;11.60;99.90;;;;;;5035226;28;20017;-67
2022/06/15 00:14:28;;;;;;;3.85;3.13;;;11.70;99.90;;;;;;5035230;28;20032;-74
2022/06/15 00:16:55;;;;;;;5.53;3.15;;;11.70;99.90;;;;;;5034984;28;20535;-68
2022/06/15 00:19:23;;;;;;;5.18;3.30;;;11.80;99.90;;;;;;5035235;28;20064;-68
2022/06/15 00:21:51;;;;;;;7.05;3.00;;;11.80;99.90;;;;;;5034630;28;20030;-69
2022/06/15 00:24:19;;;;;;;5.07;2.80;;;11.90;99.90;;;;;;5034421;28;20053;-69
2022/06/15 00:26:46;;;;;;;5.10;2.80;;;12.00;99.90;;;;;;5034681;28;20065;-66
2022/06/15 00:29:13;;;;;;;4.90;2.70;;;12.00;99.90;;;;;;5034623;28;20359;-69
2022/06/15 00:31:41;;;;;;;6.50;3.17;;;12.10;99.90;;;;;;5034575;28;20030;-66
2022/06/15 00:34:09;;;;;;;4.53;2.60;;;12.20;99.90;;;;;;5034925;28;20382;-66
2022/06/15 00:36:36;;;;;;;6.68;2.88;;;12.20;99.90;;;;;;5049746;28;20032;-68
2022/06/15 00:39:04;;;;;;;6.55;2.45;;;12.30;99.90;;;;;;5034757;28;20021;-67
2022/06/15 00:41:36;;;;;;;6.63;2.50;;;12.40;99.90;;;;;;5034571;28;20044;-71
2022/06/15 00:44:24;;;;;;;4.55;3.03;;;12.40;99.90;;;;;;5034550;28;20401;-67
2022/06/15 00:46:59;;;;;;;4.80;3.47;;;12.50;99.90;;;;;;5033190;28;20159;-67
2022/06/15 00:49:29;;;;;;;6.22;3.47;;;12.60;99.90;;;;;;5034677;28;20091;-68
2022/06/15 00:52:14;;;;;;;4.35;3.13;;;12.60;99.90;;;;;;5034306;28;20018;-67
2022/06/15 00:54:44;;;;;;;5.07;3.17;;;12.70;99.90;;;;;;5034228;28;20042;-67
2022/06/15 00:57:13;;;;;;;6.40;3.63;;;12.70;99.90;;;;;;5034199;28;20476;-66
2022/06/15 01:00:01;;;;;;;8.48;4.40;;;12.80;99.90;;;;;;5034311;28;20496;-67
2022/06/15 01:02:29;;;;;;;5.63;3.10;;;12.90;99.90;;;;;;5034346;28;20025;-67
2022/06/15 01:05:02;;;;;;;5.55;3.75;;;13.00;99.90;;;;;;5034186;28;20029;-68
2022/06/15 01:07:51;;;;;;;6.43;3.42;;;13.10;99.90;;;;;;5034123;28;20030;-66
2022/06/15 01:10:42;;;;;;;7.57;3.88;;;13.10;99.50;;;;;;5033931;28;20104;-66
2022/06/15 01:13:34;;;;;;;5.95;3.78;;;13.30;99.30;;;;;;5033591;28;20029;-66
2022/06/15 01:16:22;;;;;;;6.95;3.85;;;13.40;98.80;;;;;;5033842;28;20029;-66
2022/06/15 01:19:30;;;;;;;4.80;2.97;;;13.50;98.50;;;;;;5033891;28;20029;-72
2022/06/15 01:22:18;;;;;;;3.63;2.65;;;13.60;98.10;;;;;;5033622;28;20030;-67
2022/06/15 01:25:10;;;;;;;7.80;2.88;;;13.70;97.90;;;;;;5033620;28;20026;-67
2022/06/15 01:27:55;;;;;;;4.88;2.95;;;13.80;97.50;;;;;;5033940;28;20079;-68
2022/06/15 01:30:29;;;;;;;6.68;3.58;;;14.00;97.60;;;;;;5033925;28;20028;-68
2022/06/15 01:32:56;;;;;;;13.68;4.05;;;14.20;97.70;;;;;;5033794;28;20022;-67
2022/06/15 01:35:30;;;;;;;5.57;2.92;;;14.30;96.90;;;;;;5033709;28;20013;-68
2022/06/15 01:38:19;;;;;;;3.30;2.80;;;14.40;96.10;;;;;;5033610;28;20030;-67
2022/06/15 01:41:03;;;;;;;6.85;3.47;;;14.60;96.60;;;;;;5033412;28;20112;-70
2022/06/15 01:43:36;;;;;;;4.57;2.78;;;14.80;95.90;;;;;;5033458;28;20068;-67
2022/06/15 01:46:04;;;;;;;6.35;3.72;;;14.80;95.30;;;;;;5033496;28;20013;-67
2022/06/15 01:48:33;;;;;;;7.00;4.00;;;15.10;95.40;;;;;;5033175;28;20381;-68
2022/06/15 01:51:08;;;;;;;7.32;4.15;;;15.20;95.60;;;;;;5033184;28;20032;-69
2022/06/15 01:53:47;;;;;;;6.35;3.22;;;15.40;94.90;;;;;;5033390;28;20052;-68
2022/06/15 01:56:24;;;;;;;6.72;3.25;;;15.60;94.60;;;;;;5033013;28;20029;-68
2022/06/15 01:59:03;;;;;;;8.02;3.10;;;15.70;94.00;;;;;;5033120;28;20025;-68
2022/06/15 02:01:41;;;;;;;7.15;2.03;;;15.90;92.90;;;;;;5033135;28;20033;-68
2022/06/15 02:05:01;;;;;;;6.18;1.98;;;16.10;92.00;;;;;;5048489;28;20021;-67
2022/06/15 02:07:49;;;;;;;2.30;1.60;;;16.10;91.20;;;;;;4991167;28;20054;-68
2022/06/15 02:10:33;;;;;;;5.32;1.55;;;16.30;91.60;;;;;;5030288;28;20025;-67
2022/06/15 02:13:23;;;;;;;4.35;2.10;;;16.30;91.80;;;;;;5032839;28;20031;-70
2022/06/15 02:15:55;;;;;;;5.47;1.70;;;16.40;91.70;;;;;;5033092;28;20533;-67
2022/06/15 02:18:25;;;;;;;5.28;1.60;;;16.60;91.80;;;;;;5032956;28;20037;-69
2022/06/15 02:20:58;;;;;;;3.05;1.27;;;16.80;91.00;;;;;;5032902;28;20034;-68
2022/06/15 02:23:28;;;;;;;7.03;1.67;;;16.80;90.10;;;;;;5032860;28;20020;-67
2022/06/15 02:25:57;;;;;;;3.17;1.45;;;16.90;88.60;;;;;;5032967;28;20478;-67
2022/06/15 02:28:29;;;;;;;4.63;1.65;;;16.90;88.40;;;;;;5032975;28;20022;-67
2022/06/15 02:30:56;;;;;;;1.73;1.00;;;17.00;87.40;;;;;;5032868;28;20017;-68
2022/06/15 02:33:30;;;;;;;3.33;1.35;;;17.20;86.80;;;;;;5032397;28;20440;-67
2022/06/15 02:35:59;;;;;;;4.05;1.45;;;17.50;85.70;;;;;;5032726;28;20100;-68
2022/06/15 02:38:28;;;;;;;3.28;1.60;;;17.70;85.10;;;;;;5032465;28;20534;-68
2022/06/15 02:40:56;;;;;;;4.15;1.25;;;17.90;84.50;;;;;;5032523;28;20026;-70
2022/06/15 02:43:27;;;;;;;4.13;1.75;;;18.00;83.20;;;;;;5032635;28;20076;-68
2022/06/15 02:45:57;;;;;;;4.68;1.40;;;18.40;85.30;;;;;;5032511;28;20021;-68
2022/06/15 02:48:25;;;;;;;3.42;1.95;;;18.70;82.20;;;;;;5032152;28;20466;-68
2022/06/15 02:51:06;;;;;;;5.75;2.45;;;19.20;81.30;;;;;;5032626;28;20028;-69
2022/06/15 02:53:35;;;;;;;5.03;1.45;;;19.60;79.20;;;;;;5032247;28;20030;-69
2022/06/15 02:56:04;;;;;;;2.95;1.40;;;19.90;79.30;;;;;;5032452;28;20035;-67
2022/06/15 02:58:38;;;;;;;3.92;1.33;;;20.40;76.70;;;;;;5031923;28;20039;-68
2022/06/15 03:01:06;;;;;;;2.55;1.27;;;20.50;75.30;;;;;;5032109;28;20040;-68
2022/06/15 03:03:34;;;;;;;3.45;1.30;;;20.60;74.30;;;;;;5032141;28;20072;-67
2022/06/15 03:06:01;;;;;;;4.65;1.20;;;20.60;73.70;;;;;;5032174;28;20549;-67
2022/06/15 03:08:28;;;;;;;2.63;0.93;;;20.70;73.00;;;;;;5047111;28;20425;-68
2022/06/15 03:10:56;;;;;;;1.65;1.00;;;20.80;72.90;;;;;;5031324;28;20030;-68
2022/06/15 03:13:23;;;;;;;1.75;0.85;;;20.90;72.70;;;;;;5031953;28;20032;-67
2022/06/15 03:15:56;;;;;;;3.60;1.52;;;20.90;72.80;;;;;;5031901;28;20112;-68
2022/06/15 03:18:23;;;;;;;2.60;1.63;;;21.30;72.30;;;;;;5032075;28;20032;-68
2022/06/15 03:20:50;;;;;;;2.33;1.33;;;21.60;71.40;;;;;;5032028;28;20030;-68
2022/06/15 03:23:18;;;;;;;3.00;1.00;;;21.80;71.00;;;;;;5032003;28;20482;-67
2022/06/15 03:25:45;;;;;;;3.20;1.60;;;22.00;69.60;;;;;;5031697;28;20052;-68
2022/06/15 03:28:12;;;;;;;2.67;1.40;;;22.00;68.50;;;;;;5031737;28;20056;-67
2022/06/15 03:30:39;;;;;;;2.67;1.00;;;22.00;67.90;;;;;;5031976;28;20024;-68
2022/06/15 03:33:07;;;;;;;1.42;0.98;;;22.20;68.30;;;;;;5031846;28;20033;-69
2022/06/15 03:35:34;;;;;;;2.10;0.80;;;22.60;67.40;;;;;;5031728;28;20056;-68
2022/06/15 03:38:03;;;;;;;2.17;0.98;;;23.30;66.60;;;;;;5030571;28;20021;-68
2022/06/15 03:40:31;;;;;;;1.83;0.90;;;23.80;65.20;;;;;;5031850;28;20029;-68
2022/06/15 03:42:58;;;;;;;3.28;0.90;;;24.20;64.20;;;;;;5031660;28;20033;-68
2022/06/15 03:45:26;;;;;;;2.67;1.02;;;24.60;63.00;;;;;;5031398;28;20068;-69
2022/06/15 03:47:55;;;;;;;3.30;1.10;;;25.00;63.00;;;;;;5030439;28;20116;-69
2022/06/15 03:50:27;;;;;;;1.58;1.00;;;25.40;61.20;;;;;;5031995;28;20017;-68
2022/06/15 03:52:54;;;;;;;5.65;0.93;;;25.70;59.90;;;;;;5031685;28;20021;-68
2022/06/15 03:55:22;;;;;;;1.90;0.80;;;25.90;58.70;;;;;;5031566;28;20053;-67
2022/06/15 03:57:49;;;;;;;1.77;0.80;;;25.80;58.50;;;;;;5031379;28;20354;-68
2022/06/15 04:00:20;;;;;;;1.73;0.70;;;25.80;58.20;;;;;;5031495;28;20036;-68
2022/06/15 04:02:47;;;;;;;2.60;0.90;;;25.70;58.10;;;;;;5031568;28;20103;-68
2022/06/15 04:05:24;;;;;;;2.35;1.00;;;25.40;57.70;;;;;;5031764;28;20018;-69
2022/06/15 04:10:37;;;;;;;1.52;0.70;;;23.80;58.60;;;;;;5031453;28;20032;-68
2022/06/15 04:13:05;;;;;;;1.50;0.90;;;23.00;59.10;;;;;;5031424;28;20026;-72
2022/06/15 04:15:32;;;;;;;1.17;0.77;;;22.30;60.30;;;;;;5031321;28;20107;-68
2022/06/15 04:18:00;;;;;;;1.73;0.60;;;21.70;61.90;;;;;;5030723;28;20116;-68
2022/06/15 04:20:36;;;;;;;1.88;0.70;;;21.30;62.50;;;;;;5031065;28;20036;-68
2022/06/15 04:23:11;;;;;;;1.98;0.70;;;20.90;63.20;;;;;;5035079;28;20103;-68
2022/06/15 04:25:46;;;;;;;1.00;0.70;;;20.60;63.80;;;;;;5035155;28;20017;-68
2022/06/15 04:28:16;;;;;;;1.98;0.70;;;20.30;64.50;;;;;;5035019;28;20026;-68
2022/06/15 04:30:44;;;;;;;1.65;0.50;;;19.90;65.00;;;;;;5035297;28;20013;-72
2022/06/15 04:33:12;;;;;;;1.13;0.70;;;19.70;65.10;;;;;;5035009;28;20029;-69
2022/06/15 04:35:40;;;;;;;0.95;0.60;;;19.60;65.60;;;;;;5050183;28;20374;-70
2022/06/15 04:38:07;;;;;;;1.65;0.60;;;19.60;66.30;;;;;;5034571;28;20030;-67
2022/06/15 04:40:36;;;;;;;1.13;0.63;;;19.40;65.90;;;;;;5033247;28;20025;-72
2022/06/15 04:43:04;;;;;;;2.13;0.70;;;19.30;66.70;;;;;;5034382;28;20147;-67
2022/06/15 04:45:32;;;;;;;1.67;0.70;;;19.20;67.10;;;;;;5034578;28;20382;-67
2022/06/15 04:47:59;;;;;;;2.03;1.15;;;19.20;67.80;;;;;;5034357;28;20466;-68
2022/06/15 04:50:27;;;;;;;5.20;0.90;;;19.30;68.00;;;;;;5034539;28;20072;-68
2022/06/15 04:52:54;;;;;;;1.88;0.77;;;19.20;68.00;;;;;;5034133;28;20458;-67
2022/06/15 04:55:23;;;;;;;1.40;0.70;;;19.30;67.70;;;;;;5034170;28;20053;-68
2022/06/15 04:57:54;;;;;;;1.63;0.60;;;19.30;68.40;;;;;;5034411;28;20112;-72
2022/06/15 05:00:23;;;;;;;1.38;0.57;;;19.30;67.80;;;;;;5034354;28;20013;-68
2022/06/15 05:02:51;;;;;;;4.13;0.68;;;19.30;68.10;;;;;;5034218;28;20034;-68
2022/06/15 05:05:18;;;;;;;2.25;0.98;;;19.30;68.20;;;;;;5033130;28;20113;-66
2022/06/15 05:07:46;;;;;;;2.22;0.73;;;19.40;68.00;;;;;;5034366;28;20053;-66
2022/06/15 05:10:18;;;;;;;6.47;0.80;;;19.40;68.00;;;;;;5034340;28;20080;-66
2022/06/15 05:12:46;;;;;;;1.00;0.60;;;19.40;68.40;;;;;;5034447;28;20025;-67
2022/06/15 05:15:14;;;;;;;2.28;0.82;;;19.30;68.00;;;;;;5034134;28;20033;-67
2022/06/15 05:17:43;;;;;;;1.77;0.88;;;19.40;68.60;;;;;;5033954;28;20144;-68
2022/06/15 05:20:13;;;;;;;1.08;0.70;;;19.40;67.70;;;;;;5048250;28;20316;-68
2022/06/15 05:22:42;;;;;;;5.00;1.20;;;19.40;67.20;;;;;;5032425;28;20029;-68
2022/06/15 05:25:11;;;;;;;1.50;0.70;;;19.50;66.50;;;;;;5032087;28;20071;-68
2022/06/15 05:27:38;;;;;;;2.13;0.77;;;19.60;66.90;;;;;;5030666;28;20493;-68
2022/06/15 05:30:07;;;;;;;2.17;0.77;;;19.70;65.50;;;;;;5031952;28;20022;-66
2022/06/15 05:32:34;;;;;;;1.85;0.80;;;19.80;65.90;;;;;;5032818;28;20029;-67
2022/06/15 05:35:02;;;;;;;1.60;0.75;;;19.90;67.70;;;;;;5033557;28;20026;-67
2022/06/15 05:37:31;;;;;;;2.53;0.90;;;20.30;67.60;;;;;;5033157;28;20014;-68
2022/06/15 05:39:58;;;;;;;1.70;0.60;;;20.60;68.20;;;;;;5030247;28;20049;-69
2022/06/15 05:42:28;;;;;;;2.47;0.90;;;20.70;65.80;;;;;;5032896;28;20478;-68
2022/06/15 05:44:56;;;;;;;4.43;1.23;;;20.80;66.80;;;;;;5033049;28;20021;-67
2022/06/15 05:47:24;;;;;;;2.83;0.70;;;20.80;68.80;;;;;;5032456;28;20025;-67
2022/06/15 05:49:52;;;;;;;2.40;1.27;;;20.70;66.20;;;;;;5032532;28;20096;-66
2022/06/15 05:52:20;;;;;;;2.97;0.70;;;20.60;67.70;;;;;;5033010;28;20024;-70
2022/06/15 05:54:47;;;;;;;2.88;1.35;;;20.60;67.30;;;;;;5031560;28;20516;-68
2022/06/15 05:57:25;;;;;;;2.15;1.00;;;20.60;66.60;;;;;;5032772;28;20441;-70
2022/06/15 05:59:55;;;;;;;1.75;0.80;;;20.70;68.40;;;;;;5030614;28;20022;-67
2022/06/15 06:02:24;;;;;;;15.07;2.08;;;21.00;70.80;;;;;;5038220;28;20052;-67
2022/06/15 06:04:52;;;;;;;2.33;1.35;;;21.10;68.20;;;;;;5052048;28;20028;-66
2022/06/15 06:07:21;;;;;;;4.93;2.25;;;21.20;69.70;;;;;;5028457;28;20044;-68
2022/06/15 06:09:49;;;;;;;4.80;2.03;;;21.40;69.50;;;;;;5026635;28;20024;-68
2022/06/15 06:12:17;;;;;;;2.95;1.77;;;21.30;70.30;;;;;;5042404;28;20033;-67
2022/06/15 06:14:44;;;;;;;4.25;1.55;;;21.10;71.00;;;;;;5076056;28;20029;-69
2022/06/15 06:17:12;;;;;;;3.95;1.42;;;20.70;73.10;;;;;;5051244;28;20112;-67
2022/06/15 06:19:39;;;;;;;2.65;1.25;;;20.40;73.70;;;;;;5036380;28;20541;-67
2022/06/15 06:22:06;;;;;;;3.03;1.38;;;20.00;74.10;;;;;;5031477;28;20133;-69
2022/06/15 06:24:34;;;;;;;4.25;1.25;;;19.70;75.40;;;;;;5029332;28;20021;-67
2022/06/15 06:27:03;;;;;;;6.32;2.30;;;19.30;77.00;;;;;;5022335;28;20087;-75
2022/06/15 06:29:31;;;;;;;7.55;2.97;;;19.00;78.10;;;;;;5034486;28;20025;-66
2022/06/15 06:31:59;;;;;;;4.43;2.25;;;18.70;78.80;;;;;;5031560;28;20401;-66
2022/06/15 06:34:29;;;;;;;6.32;2.30;;;18.30;78.80;;;;;;5031453;28;20419;-64
2022/06/15 06:36:58;;;;;;;5.88;3.22;;;18.00;81.00;;;;;;5038680;28;20027;-65
2022/06/15 06:39:28;;;;;;;8.10;2.97;;;17.70;81.30;;;;;;5037890;28;20052;-66
2022/06/15 06:41:57;;;;;;;7.03;3.22;;;17.50;82.60;;;;;;5046227;28;20029;-70
2022/06/15 06:44:25;;;;;;;14.43;3.67;;;17.20;83.40;;;;;;5030093;28;20105;-66
2022/06/15 06:46:53;;;;;;;10.07;2.65;;;17.00;84.20;;;;;;5038029;28;20424;-66
2022/06/15 06:49:22;;;;;;;7.13;2.10;;;16.70;85.50;;;;;;5040042;28;20021;-73
2022/06/15 06:51:50;;;;;;;9.10;2.85;;;16.50;85.80;;;;;;5030914;28;20091;-69
2022/06/15 06:54:19;;;;;;;9.07;2.70;;;16.40;86.50;;;;;;5036314;28;20073;-75
2022/06/15 06:56:47;;;;;;;5.00;2.00;;;16.20;87.90;;;;;;5046189;28;20052;-73
2022/06/15 06:59:15;;;;;;;6.13;3.15;;;16.00;88.00;;;;;;5039968;28;20026;-68
2022/06/15 07:01:44;;;;;;;9.07;4.03;;;15.90;89.20;;;;;;5036546;28;20051;-74
2022/06/15 07:04:14;;;;;;;7.53;2.75;;;15.70;90.10;;;;;;5065897;28;20354;-76
2022/06/15 07:06:42;;;;;;;9.80;2.50;;;15.60;90.50;;;;;;5050000;28;20036;-72
2022/06/15 07:09:10;;;;;;;8.68;3.45;;;15.50;91.00;;;;;;5045597;28;20057;-75
2022/06/15 07:11:38;;;;;;;11.05;2.50;;;15.30;91.30;;;;;;5048677;28;20461;-73
2022/06/15 07:14:05;;;;;;;10.13;4.35;;;15.20;91.70;;;;;;5050662;28;20045;-76
2022/06/15 07:16:33;;;;;;;10.18;3.05;;;15.10;92.10;;;;;;5050354;28;20029;-69
2022/06/15 07:19:00;;;;;;;12.52;3.20;;;15.00;92.60;;;;;;5046644;28;20304;-71
2022/06/15 07:21:29;;;;;;;5.65;2.58;;;14.90;93.00;;;;;;5030780;28;20037;-71
2022/06/15 07:23:58;;;;;;;7.75;2.85;;;14.70;93.40;;;;;;5031176;28;20033;-69
2022/06/15 07:26:47;;;;;;;11.05;3.10;;;14.60;93.80;;;;;;5031222;28;20105;-73
2022/06/15 07:29:19;;;;;;;8.90;3.50;;;14.60;94.20;;;;;;5039827;28;20052;-68
2022/06/15 07:31:51;;;;;;;11.43;4.43;;;14.50;94.60;;;;;;5030894;28;20037;-69
2022/06/15 07:34:19;;;;;;;10.25;4.50;;;14.30;94.90;;;;;;5031419;28;20077;-70
2022/06/15 07:36:47;;;;;;;11.02;3.53;;;14.20;95.40;;;;;;5031195;28;20018;-70
2022/06/15 07:39:18;;;;;;;9.68;5.45;;;14.10;95.60;;;;;;5039001;28;20029;-66
2022/06/15 07:41:46;;;;;;;7.95;3.75;;;14.10;96.00;;;;;;5030846;28;20037;-70
2022/06/15 07:44:16;;;;;;;10.70;4.50;;;14.00;96.40;;;;;;5031063;28;20032;-67
2022/06/15 07:46:43;;;;;;;9.77;4.32;;;13.90;96.70;;;;;;5049481;28;20223;-74
2022/06/15 07:52:02;;;;;;;11.65;4.22;;;13.80;97.40;;;;;;5030425;28;20111;-73
2022/06/15 07:54:30;;;;;;;9.93;5.15;;;13.80;97.70;;;;;;5038177;28;20048;-70
2022/06/15 07:56:58;;;;;;;9.40;4.13;;;13.70;98.00;;;;;;5052301;28;20017;-67
2022/06/15 07:59:26;;;;;;;11.88;4.95;;;13.60;98.20;;;;;;5046858;28;20104;-70
2022/06/15 08:01:53;;;;;;;11.73;5.38;;;13.60;98.40;;;;;;5034541;28;20092;-67
2022/06/15 08:04:21;;;;;;;8.52;4.30;;;13.60;98.80;;;;;;5034313;28;20537;-69
2022/06/15 08:06:49;;;;;;;9.48;3.50;;;13.50;99.00;;;;;;5045017;28;20036;-71
2022/06/15 08:09:17;;;;;;;11.48;4.47;;;13.50;99.20;;;;;;5048336;28;20531;-70
2022/06/15 08:14:33;;;;;;;9.52;4.03;;;13.40;99.60;;;;;;5054197;28;20028;-71
2022/06/15 08:17:03;;;;;;;10.77;4.65;;;13.30;99.80;;;;;;5053883;28;20471;-74
2022/06/15 08:19:33;;;;;;;10.02;4.20;;;13.30;99.90;;;;;;5046254;28;20473;-69
2022/06/15 08:22:01;;;;;;;10.63;4.38;;;13.30;99.90;;;;;;5033786;28;20474;-69
2022/06/15 08:24:29;;;;;;;9.50;5.38;;;13.20;99.90;;;;;;5052031;28;20036;-70
2022/06/15 08:26:56;;;;;;;10.23;4.38;;;13.20;99.40;;;;;;5051912;28;20414;-73
2022/06/15 08:29:23;;;;;;;9.68;4.00;;;13.20;99.50;;;;;;5046889;28;20121;-68
2022/06/15 08:31:56;;;;;;;9.98;4.35;;;13.30;99.30;;;;;;5032469;28;20079;-71
2022/06/15 08:34:29;;;;;;;7.05;3.58;;;13.20;99.20;;;;;;5033851;28;20025;-67
2022/06/15 08:36:57;;;;;;;6.47;4.15;;;13.20;97.90;;;;;;5047467;28;20091;-67
2022/06/15 08:39:24;;;;;;;10.15;5.80;;;13.20;97.90;;;;;;5045823;28;20452;-67
2022/06/15 08:42:11;;;;;;;5.82;3.67;;;13.20;97.80;;;;;;5034048;28;20030;-72
2022/06/15 08:44:45;;;;;;;5.05;3.38;;;13.20;96.60;;;;;;5018354;28;20557;-67
2022/06/15 08:47:18;;;;;;;7.72;4.20;;;13.30;95.30;;;;;;5053139;28;20469;-68
2022/06/15 08:50:08;;;;;;;8.45;3.95;;;13.30;94.70;;;;;;5042872;28;20073;-73
2022/06/15 08:52:39;;;;;;;6.32;3.50;;;13.30;94.10;;;;;;5032824;28;20040;-68
2022/06/15 08:55:17;;;;;;;6.50;3.20;;;13.40;93.60;;;;;;5033039;28;20076;-66
2022/06/15 08:57:49;;;;;;;3.67;2.78;;;13.50;93.00;;;;;;5037083;28;20494;-70
2022/06/15 09:00:37;;;;;;;5.30;2.40;;;13.50;92.60;;;;;;5047547;28;20045;-67
2022/06/15 09:03:13;;;;;;;3.65;2.10;;;13.60;92.30;;;;;;5052706;28;20137;-68
2022/06/15 09:06:03;;;;;;;5.53;2.53;;;13.60;92.00;;;;;;5052991;28;20412;-69
2022/06/15 09:08:53;;;;;;;4.40;2.55;;;13.60;91.80;;;;;;5052118;28;20509;-71
2022/06/15 09:11:45;;;;;;;4.85;2.65;;;13.60;91.40;;;;;;5033358;28;20504;-72
2022/06/15 09:14:40;;;;;;;6.85;2.70;;;13.60;91.60;;;;;;5050181;28;20029;-68
2022/06/15 09:17:13;;;;;;;5.45;3.08;;;13.50;91.50;;;;;;5051340;28;20078;-72
2022/06/15 09:20:09;;;;;;;;;;;13.50;91.70;;;;;;5049537;28;20025;-72
2022/06/15 09:22:44;;;;;;;7.60;3.80;;;13.50;91.90;;;;;;5052039;28;19917;-70
2022/06/15 09:25:22;;;;;;;7.93;3.63;;;13.40;91.80;;;;;;5052898;28;20021;-68
2022/06/15 09:28:02;;;;;;;6.82;4.28;;;13.40;91.90;;;;;;5052643;28;20021;-72
2022/06/15 09:30:32;;;;;;;10.88;4.88;;;13.30;91.70;;;;;;5035272;28;20025;-69
2022/06/15 09:33:14;;;;;;;13.02;5.72;;;13.30;91.60;;;;;;5044212;28;20354;-66
2022/06/15 09:36:02;;;;;;;19.75;10.63;;;13.30;91.60;;;;;;5053199;28;20481;-67
2022/06/15 09:38:31;;;;;;;22.38;12.43;;;13.20;91.50;;;;;;5052005;28;20128;-70
2022/06/15 09:41:16;;;;;;;17.73;10.52;;;13.20;91.40;;;;;;5035891;28;20029;-68
2022/06/15 09:44:20;;;;;;;6.40;3.47;;;13.20;91.50;;;;;;5052454;28;20037;-72
2022/06/15 09:47:07;;;;;;;8.38;3.92;;;13.20;91.20;;;;;;5039385;28;20494;-71
2022/06/15 09:50:00;;;;;;;4.85;2.65;;;13.20;91.20;;;;;;5035511;28;20045;-68
2022/06/15 09:52:57;;;;;;;5.82;3.10;;;13.20;91.20;;;;;;5042103;28;20078;-71
2022/06/15 09:55:46;;;;;;;4.05;2.65;;;13.20;91.20;;;;;;5046902;28;20037;-69
2022/06/15 09:58:19;;;;;;;6.57;4.82;;;13.10;91.20;;;;;;5036956;28;20028;-69
2022/06/15 10:00:49;;;;;;;5.10;3.40;;;13.10;91.20;;;;;;5039825;28;20027;-72
2022/06/15 10:03:44;;;;;;;7.35;4.57;;;13.10;91.20;;;;;;5052155;28;20367;-72
2022/06/15 10:06:33;;;;;;;5.47;4.07;;;13.00;91.40;;;;;;5051131;28;20057;-71
2022/06/15 10:09:03;;;;;;;6.10;3.40;;;13.00;91.40;;;;;;5026222;28;20630;-73
2022/06/15 10:11:53;;;;;;;11.35;7.93;;;13.00;91.70;;;;;;5034814;28;20044;-71
2022/06/15 10:14:34;;;;;;;11.85;6.75;;;13.00;91.60;;;;;;5052135;28;20090;-71
2022/06/15 10:17:30;;;;;;;13.17;8.83;;;12.90;91.50;;;;;;5052289;28;20117;-72
2022/06/15 10:19:59;;;;;;;5.90;4.80;;;13.00;91.60;;;;;;5022352;28;20021;-74
2022/06/15 10:22:31;;;;;;;5.63;3.55;;;12.90;91.70;;;;;;5040411;28;20409;-73
2022/06/15 10:25:00;;;;;;;9.52;5.05;;;13.00;91.70;;;;;;5067295;28;20040;-72
2022/06/15 10:27:36;;;;;;;3.70;2.78;;;13.00;91.90;;;;;;5048159;28;20033;-71
2022/06/15 10:30:12;;;;;;;5.20;3.15;;;13.00;91.80;;;;;;5031098;28;20076;-71
2022/06/15 10:33:13;;;;;;;12.98;6.13;;;13.10;92.00;;;;;;5012363;28;20049;-72
2022/06/15 10:35:40;;;;;;;5.35;3.20;;;13.00;91.90;;;;;;5000808;28;20125;-70
2022/06/15 10:38:17;;;;;;;7.57;4.30;;;13.10;91.90;;;;;;5012832;28;20045;-72
2022/06/15 10:40:55;;;;;;;6.95;3.80;;;13.10;91.90;;;;;;5048945;28;20045;-69
2022/06/15 10:43:35;;;;;;;4.20;3.15;;;13.10;92.00;;;;;;5038981;28;20025;-70
2022/06/15 10:46:08;;;;;;;4.47;2.80;;;13.20;92.00;;;;;;5030329;28;20358;-70
2022/06/15 10:48:47;;;;;;;5.03;2.67;;;13.20;92.10;;;;;;5031842;28;20544;-68
2022/06/15 10:51:32;;;;;;;3.58;2.38;;;13.20;92.20;;;;;;5029606;28;20018;-68
2022/06/15 10:54:17;;;;;;;4.75;2.92;;;13.30;92.30;;;;;;5031817;28;20056;-69
2022/06/15 11:02:40;;;;;;;3.80;2.25;;;13.30;92.60;;;;;;5030619;28;20387;-70
2022/06/15 11:05:10;;;;;;;4.55;2.65;;;13.20;92.70;;;;;;5028203;28;20021;-69
2022/06/15 11:07:55;;;;;;;3.83;2.22;;;13.30;92.80;;;;;;5026990;28;20024;-68
2022/06/15 11:10:29;;;;;;;4.38;3.50;;;13.20;92.90;;;;;;5032496;28;20036;-69
2022/06/15 11:13:25;;;;;;;3.85;2.88;;;13.20;93.10;;;;;;5031558;28;20018;-69
2022/06/15 11:18:45;;;;;;;5.18;2.70;;;13.10;93.40;;;;;;5044928;28;20110;-69
2022/06/15 11:21:26;;;;;;;7.07;4.35;;;13.00;93.60;;;;;;5051640;28;20025;-71
2022/06/15 11:24:06;;;;;;;6.50;3.13;;;12.90;93.60;;;;;;5052077;28;20474;-71
2022/06/15 11:26:56;;;;;;;4.38;2.40;;;12.90;93.70;;;;;;5050745;28;20343;-69
2022/06/15 11:29:30;;;;;;;3.22;2.20;;;12.90;93.90;;;;;;5051225;28;20074;-69
2022/06/15 11:32:03;;;;;;;4.68;2.67;;;12.80;94.00;;;;;;5036429;28;20612;-69
2022/06/15 11:34:37;;;;;;;5.85;2.42;;;12.80;94.30;;;;;;5034694;28;20013;-69
2022/06/15 11:37:39;;;;;;;4.07;3.08;;;12.80;94.10;;;;;;5032203;28;20029;-69
2022/06/15 11:40:31;;;;;;;4.50;2.22;;;12.70;94.10;;;;;;5033320;28;20022;-71
2022/06/15 11:42:59;;;;;;;3.85;2.30;;;12.80;94.40;;;;;;5033831;28;20117;-71
2022/06/15 11:45:46;;;;;;;3.35;2.03;;;12.70;94.50;;;;;;5034807;28;20020;-69
2022/06/15 11:48:52;;;;;;;4.60;2.33;;;12.70;94.60;;;;;;5032478;28;20021;-70
2022/06/15 11:51:28;;;;;;;5.95;2.80;;;12.70;94.70;;;;;;5030361;28;20033;-72
2022/06/15 11:54:06;;;;;;;3.95;1.77;;;12.70;94.60;;;;;;5034058;28;20120;-69
2022/06/15 11:56:53;;;;;;;3.50;2.00;;;12.70;94.60;;;;;;5035169;28;20026;-73
2022/06/15 11:59:30;;;;;;;5.70;2.38;;;12.70;94.80;;;;;;5032729;28;20029;-75
2022/06/15 12:02:17;;;;;;;6.32;2.20;;;12.70;94.50;;;;;;5035046;28;20117;-70
2022/06/15 12:05:20;;;;;;;6.40;2.40;;;12.70;94.60;;;;;;5049452;28;20075;-71
2022/06/15 12:07:52;;;;;;;6.25;2.50;;;12.80;94.70;;;;;;5033986;28;20036;-73
2022/06/15 12:10:34;;;;;;;5.60;2.88;;;12.70;94.70;;;;;;5035724;28;20439;-70
2022/06/15 12:13:18;;;;;;;6.10;3.27;;;12.70;94.70;;;;;;5034933;28;20470;-72
2022/06/15 12:15:55;;;;;;;6.88;2.75;;;12.70;94.80;;;;;;5034874;28;20255;-71
2022/06/15 12:18:25;;;;;;;4.68;2.90;;;12.70;94.90;;;;;;5032451;28;20024;-72
2022/06/15 12:21:11;;;;;;;6.35;2.78;;;12.60;95.00;;;;;;5033615;28;20071;-70
2022/06/15 12:23:48;;;;;;;6.00;2.85;;;12.60;95.00;;;;;;5035524;28;20029;-71
2022/06/15 12:26:33;;;;;;;4.82;2.42;;;12.50;95.10;;;;;;5035412;28;20030;-71
2022/06/15 12:29:08;;;;;;;5.60;2.20;;;12.50;95.10;;;;;;5032096;28;20474;-68
2022/06/15 12:31:35;;;;;;;6.82;2.50;;;12.50;95.20;;;;;;5034502;28;20029;-69
2022/06/15 12:34:21;;;;;;;6.28;3.15;;;12.40;95.30;;;;;;5034319;28;20045;-73
2022/06/15 12:37:19;;;;;;;5.40;2.05;;;12.50;95.40;;;;;;5032847;28;20461;-69
2022/06/15 12:40:13;;;;;;;3.42;1.77;;;12.40;95.30;;;;;;5033155;28;20032;-72
2022/06/15 12:42:46;;;;;;;4.63;1.90;;;12.40;95.30;;;;;;5033145;28;20469;-70
2022/06/15 12:45:32;;;;;;;5.28;2.33;;;12.40;95.40;;;;;;5052138;28;20037;-69
2022/06/15 12:48:04;;;;;;;4.07;2.20;;;12.40;95.40;;;;;;5034502;28;20025;-72
2022/06/15 12:51:07;;;;;;;3.65;2.00;;;12.50;95.40;;;;;;5034368;28;20024;-70
2022/06/15 12:54:03;;;;;;;4.22;2.22;;;12.50;95.40;;;;;;5033245;28;20076;-70
2022/06/15 12:56:35;;;;;;;8.90;5.05;;;12.50;95.50;;;;;;5033355;28;20052;-70
2022/06/15 12:59:19;;;;;;;6.25;4.95;;;12.50;95.40;;;;;;5032024;28;20023;-73
2022/06/15 13:01:48;;;;;;;3.85;2.92;;;12.50;95.50;;;;;;5030848;28;20486;-69
2022/06/15 13:04:31;;;;;;;6.50;3.47;;;12.50;95.40;;;;;;5033915;28;20024;-69
2022/06/15 13:07:26;;;;;;;4.65;3.05;;;12.60;95.80;;;;;;5039132;28;20154;-70
2022/06/15 13:10:13;;;;;;;3.53;2.55;;;12.60;96.20;;;;;;5033281;28;20500;-69
2022/06/15 13:12:45;;;;;;;4.18;2.72;;;12.60;96.40;;;;;;5031217;28;20386;-71
2022/06/15 13:15:31;;;;;;;3.63;2.60;;;12.50;96.30;;;;;;5033134;28;20029;-68
2022/06/15 13:18:09;;;;;;;4.60;2.63;;;12.50;96.60;;;;;;5033649;28;20029;-69
2022/06/15 13:20:48;;;;;;;6.60;3.22;;;12.40;96.70;;;;;;5033039;28;20108;-70
2022/06/15 13:23:39;;;;;;;4.13;3.28;;;12.40;96.80;;;;;;5034062;28;20072;-69
2022/06/15 13:26:26;;;;;;;4.07;2.22;;;12.40;96.80;;;;;;5033690;28;20036;-70
2022/06/15 13:29:03;;;;;;;3.13;1.88;;;12.40;96.30;;;;;;5034582;28;20020;-70
2022/06/15 13:31:50;;;;;;;2.40;1.67;;;12.30;95.80;;;;;;5031608;28;20022;-70
2022/06/15 13:34:37;;;;;;;4.07;1.90;;;12.40;95.50;;;;;;5031950;28;20029;-70
2022/06/15 13:37:22;;;;;;;8.93;3.95;;;12.40;95.30;;;;;;5028012;28;20033;-69
2022/06/15 13:39:53;;;;;;;8.93;4.32;;;12.40;95.10;;;;;;5031442;28;20378;-69
2022/06/15 13:42:45;;;;;;;6.57;3.17;;;12.40;94.70;;;;;;5029781;28;20040;-69